createdAt,value
2023-08-14T00:04:36.730Z,86.99
2023-08-14T00:09:41.140Z,86.33
2023-08-14T00:14:44.596Z,87.42
2023-08-14T00:19:48.400Z,87.11
2023-08-14T00:24:52.637Z,87.82
2023-08-14T00:29:56.090Z,88.02
2023-08-14T00:35:00.098Z,88.56
2023-08-14T00:40:04.409Z,89.89
2023-08-14T00:45:08.515Z,90.37
2023-08-14T00:50:13.291Z,90.55
2023-08-14T00:55:22.889Z,90.93
2023-08-14T01:00:29.536Z,91.06
2023-08-14T01:05:33.974Z,90.93
2023-08-14T01:10:55.769Z,91.43
2023-08-14T01:16:02.892Z,90.42
2023-08-14T01:21:14.787Z,89.94
2023-08-14T01:26:18.614Z,90.47
2023-08-14T01:31:22.078Z,90.75
2023-08-14T01:36:39.359Z,92.04
2023-08-14T01:41:42.869Z,93.01
2023-08-14T01:46:48.343Z,93.16
2023-08-14T01:51:54.188Z,93.23
2023-08-14T01:56:58.545Z,93.62
2023-08-14T02:02:02.047Z,93.96
2023-08-14T02:07:07.197Z,94.35
2023-08-14T02:12:10.662Z,94.58
2023-08-14T02:17:14.233Z,94.66
2023-08-14T02:22:17.923Z,96.24
2023-08-14T02:27:21.573Z,96.70
2023-08-14T02:32:25.012Z,96.48
2023-08-14T02:37:28.774Z,97.20
2023-08-14T02:42:32.320Z,96.95
2023-08-14T02:47:35.807Z,97.04
2023-08-14T02:52:39.062Z,97.22
2023-08-14T02:57:42.585Z,97.88
2023-08-14T03:02:47.608Z,97.88
2023-08-14T03:07:51.423Z,98.07
2023-08-14T03:12:54.856Z,98.44
2023-08-14T03:17:58.716Z,98.88
2023-08-14T03:23:02.228Z,99.23
2023-08-14T03:28:06.179Z,100.00
2023-08-14T03:33:09.865Z,100.00
2023-08-14T03:38:13.285Z,100.00
2023-08-14T03:43:16.737Z,100.00
2023-08-14T03:48:20.230Z,100.00
2023-08-14T03:53:23.672Z,100.00
2023-08-14T03:58:27.194Z,100.00
2023-08-14T04:03:32.027Z,100.00
2023-08-14T04:08:35.721Z,100.00
2023-08-14T04:13:39.184Z,100.00
2023-08-14T04:18:42.618Z,100.00
2023-08-14T04:23:46.358Z,100.00
2023-08-14T04:28:50.255Z,100.00
2023-08-14T04:33:53.671Z,100.00
2023-08-14T04:38:57.153Z,100.00
2023-08-14T04:44:00.709Z,100.00
2023-08-14T04:49:04.919Z,100.00
2023-08-14T04:54:08.336Z,100.00
2023-08-14T04:59:11.745Z,100.00
2023-08-14T05:04:15.292Z,100.00
2023-08-14T05:09:26.447Z,100.00
2023-08-14T05:14:31.175Z,100.00
2023-08-14T05:19:34.658Z,100.00
2023-08-14T05:24:38.127Z,100.00
2023-08-14T05:29:41.570Z,99.68
2023-08-14T05:34:45.246Z,98.48
2023-08-14T05:39:48.421Z,96.37
2023-08-14T05:44:51.899Z,90.44
2023-08-14T05:49:55.329Z,88.90
2023-08-14T05:55:00.432Z,86.57
2023-08-14T06:00:05.048Z,84.35
2023-08-14T06:05:09.574Z,82.76
2023-08-14T06:10:13.219Z,82.25
2023-08-14T06:15:17.449Z,80.16
2023-08-14T06:20:21.594Z,79.80
2023-08-14T06:25:26.631Z,78.61
2023-08-14T06:30:31.071Z,77.63
2023-08-14T06:35:34.423Z,76.46
2023-08-14T06:40:37.816Z,75.38
2023-08-14T06:45:41.270Z,74.50
2023-08-14T06:50:44.859Z,73.84
2023-08-14T06:55:48.716Z,74.21
2023-08-14T07:00:51.985Z,73.65
2023-08-14T07:05:55.814Z,72.83
2023-08-14T07:10:59.705Z,71.93
2023-08-14T07:16:03.593Z,70.60
2023-08-14T07:21:09.045Z,69.96
2023-08-14T07:26:16.373Z,70.55
2023-08-14T07:31:19.833Z,68.04
2023-08-14T07:36:23.390Z,65.46
2023-08-14T07:41:26.806Z,64.66
2023-08-14T07:46:30.352Z,62.08
2023-08-14T07:51:33.868Z,60.75
2023-08-14T07:56:37.753Z,58.93
2023-08-14T08:01:42.588Z,57.92
2023-08-14T08:06:46.556Z,57.22
2023-08-14T08:11:50.218Z,57.17
2023-08-14T08:16:54.168Z,56.97
2023-08-14T08:21:57.618Z,59.62
2023-08-14T08:27:01.258Z,54.71
2023-08-14T08:32:05.280Z,52.58
2023-08-14T08:37:08.673Z,52.21
2023-08-14T08:42:13.008Z,51.54
2023-08-14T08:47:18.043Z,51.56
2023-08-14T08:52:22.433Z,50.93
2023-08-14T08:57:26.322Z,47.94
2023-08-14T09:02:29.920Z,46.85
2023-08-14T09:07:34.428Z,45.47
2023-08-14T09:12:37.924Z,45.53
2023-08-14T09:17:42.298Z,46.05
2023-08-14T09:22:45.957Z,45.80
2023-08-14T09:27:49.507Z,44.23
2023-08-14T09:32:53.178Z,41.99
2023-08-14T09:37:57.008Z,43.33
2023-08-14T09:43:01.754Z,42.97
2023-08-14T09:48:05.809Z,41.63
2023-08-14T09:53:10.019Z,43.36
2023-08-14T09:58:13.511Z,41.65
2023-08-14T10:03:18.002Z,41.93
2023-08-14T10:08:21.364Z,41.46
2023-08-14T10:13:26.576Z,41.10
2023-08-14T10:18:30.964Z,39.62
2023-08-14T10:23:35.592Z,40.29
2023-08-14T10:28:39.264Z,40.19
2023-08-14T10:33:43.066Z,41.52
2023-08-14T10:38:48.125Z,40.15
2023-08-14T10:43:51.849Z,37.54
2023-08-14T10:48:55.360Z,37.74
2023-08-14T10:54:16.145Z,36.90
2023-08-14T10:59:24.441Z,36.53
2023-08-14T11:04:28.404Z,36.77
2023-08-14T11:09:35.805Z,35.73
2023-08-14T11:14:41.480Z,35.92
2023-08-14T11:19:44.902Z,36.07
2023-08-14T11:24:50.397Z,36.73
2023-08-14T11:29:56.068Z,35.65
2023-08-14T11:35:01.632Z,35.42
2023-08-14T11:40:08.045Z,34.13
2023-08-14T11:45:12.004Z,34.93
2023-08-14T11:50:16.655Z,35.48
2023-08-14T11:55:20.265Z,35.20
2023-08-14T12:00:30.189Z,35.06
2023-08-14T12:05:37.181Z,34.24
2023-08-14T12:10:41.497Z,34.30
2023-08-14T12:15:47.635Z,34.11
2023-08-14T12:21:00.222Z,35.14
2023-08-14T12:26:08.226Z,34.70
2023-08-14T12:31:13.264Z,34.55
2023-08-14T12:36:16.698Z,34.86
2023-08-14T12:41:20.285Z,35.23
2023-08-14T12:46:23.776Z,34.15
2023-08-14T12:51:27.338Z,34.54
2023-08-14T12:56:31.647Z,35.19
2023-08-14T13:01:35.387Z,33.36
2023-08-14T13:06:39.163Z,34.25
2023-08-14T13:11:42.650Z,33.87
2023-08-14T13:16:46.108Z,33.86
2023-08-14T13:21:49.614Z,32.10
2023-08-14T13:26:53.256Z,31.16
2023-08-14T13:31:56.714Z,33.12
2023-08-14T13:37:00.114Z,32.13
2023-08-14T13:42:03.725Z,32.16
2023-08-14T13:47:07.436Z,31.73
2023-08-14T13:52:10.886Z,30.31
2023-08-14T13:57:14.354Z,31.11
2023-08-14T14:02:17.987Z,31.50
2023-08-14T14:07:24.680Z,31.70
2023-08-14T14:12:30.292Z,32.31
2023-08-14T14:17:33.698Z,31.32
2023-08-14T14:22:37.683Z,31.37
2023-08-14T14:27:41.271Z,30.06
2023-08-14T14:32:44.807Z,30.48
2023-08-14T14:37:48.451Z,30.19
2023-08-14T14:42:52.692Z,29.23
2023-08-14T14:47:56.339Z,28.63
2023-08-14T14:52:59.755Z,28.49
2023-08-14T14:58:03.277Z,27.72
2023-08-14T15:03:06.825Z,28.38
2023-08-14T15:08:10.332Z,28.05
2023-08-14T15:13:13.757Z,26.86
2023-08-14T15:18:17.617Z,25.57
2023-08-14T15:23:21.054Z,25.14
2023-08-14T15:28:25.935Z,24.76
2023-08-14T15:33:29.328Z,25.55
2023-08-14T15:38:32.778Z,25.78
2023-08-14T15:43:36.556Z,25.26
2023-08-14T15:48:41.254Z,26.46
2023-08-14T15:53:44.647Z,26.57
2023-08-14T15:58:48.094Z,26.54
2023-08-14T16:03:51.493Z,27.12
2023-08-14T16:08:56.353Z,27.86
2023-08-14T16:13:59.834Z,28.02
2023-08-14T16:19:03.490Z,27.31
2023-08-14T16:24:07.162Z,28.91
2023-08-14T16:29:12.074Z,28.42
2023-08-14T16:34:15.473Z,28.04
2023-08-14T16:39:19.685Z,28.66
2023-08-14T16:44:23.231Z,29.47
2023-08-14T16:49:27.497Z,30.12
2023-08-14T16:54:30.945Z,30.81
2023-08-14T16:59:34.342Z,32.07
2023-08-14T17:04:37.804Z,32.81
2023-08-14T17:09:41.169Z,34.56
2023-08-14T17:14:45.367Z,37.05
2023-08-14T17:19:49.157Z,39.12
2023-08-14T17:24:54.658Z,41.25
2023-08-14T17:29:58.780Z,41.84
2023-08-14T17:35:02.370Z,43.30
2023-08-14T17:40:07.971Z,44.48
2023-08-14T17:45:11.561Z,45.98
2023-08-14T17:50:15.065Z,46.48
2023-08-14T17:55:18.300Z,47.87
2023-08-14T18:00:21.790Z,49.91
2023-08-14T18:05:25.194Z,49.70
2023-08-14T18:10:28.645Z,51.47
2023-08-14T18:15:32.099Z,52.60
2023-08-14T18:20:35.624Z,52.45
2023-08-14T18:25:40.408Z,53.48
2023-08-14T18:30:43.855Z,54.74
2023-08-14T18:35:47.980Z,56.40
2023-08-14T18:40:51.402Z,56.22
2023-08-14T18:45:55.652Z,56.37
2023-08-14T18:50:59.238Z,58.14
2023-08-14T18:56:02.922Z,59.79
2023-08-14T19:01:06.323Z,60.33
2023-08-14T19:06:09.804Z,60.46
2023-08-14T19:11:13.209Z,61.88
2023-08-14T19:16:17.190Z,62.60
2023-08-14T19:21:23.753Z,62.26
2023-08-14T19:26:28.458Z,62.79
2023-08-14T19:31:32.310Z,64.06
2023-08-14T19:36:35.900Z,63.86
2023-08-14T19:41:39.269Z,64.39
2023-08-14T19:46:42.907Z,65.01
2023-08-14T19:51:46.246Z,65.18
2023-08-14T19:56:49.686Z,66.87
2023-08-14T20:01:55.251Z,68.09
2023-08-14T20:06:59.669Z,68.14
2023-08-14T20:12:04.709Z,68.30
2023-08-14T20:17:08.899Z,68.91
2023-08-14T20:22:12.373Z,69.83
2023-08-14T20:27:15.810Z,70.18
2023-08-14T20:32:20.409Z,70.61
2023-08-14T20:37:23.896Z,70.69
2023-08-14T20:42:27.398Z,71.47
2023-08-14T20:47:30.927Z,71.18
2023-08-14T20:52:34.385Z,71.86
2023-08-14T20:57:37.987Z,71.20
2023-08-14T21:02:41.445Z,71.92
2023-08-14T21:07:44.878Z,72.05
2023-08-14T21:12:48.293Z,72.35
2023-08-14T21:17:51.693Z,72.32
2023-08-14T21:22:55.148Z,72.76
2023-08-14T21:27:59.320Z,72.78
2023-08-14T21:33:03.215Z,73.21
2023-08-14T21:38:06.772Z,72.89
2023-08-14T21:43:10.315Z,73.87
2023-08-14T21:48:13.825Z,74.58
2023-08-14T21:53:19.838Z,75.22
2023-08-14T21:58:23.234Z,75.70
2023-08-14T22:03:26.775Z,76.54
2023-08-14T22:08:31.072Z,76.51
2023-08-14T22:13:35.225Z,77.40
2023-08-14T22:18:38.902Z,77.77
2023-08-14T22:23:43.062Z,78.64
2023-08-14T22:28:46.476Z,79.40
2023-08-14T22:33:50.107Z,80.00
2023-08-14T22:38:53.521Z,80.93
2023-08-14T22:43:56.936Z,81.52
2023-08-14T22:49:00.463Z,80.94
2023-08-14T22:54:04.224Z,82.30
2023-08-14T22:59:07.681Z,82.33
2023-08-14T23:04:11.116Z,82.89
2023-08-14T23:09:14.534Z,83.45
2023-08-14T23:14:17.952Z,83.73
2023-08-14T23:19:21.730Z,84.85
2023-08-14T23:24:25.478Z,85.77
2023-08-14T23:29:29.071Z,86.42
2023-08-14T23:34:32.490Z,87.22
2023-08-14T23:39:35.856Z,87.08
2023-08-14T23:44:39.387Z,86.96
2023-08-14T23:49:43.169Z,87.98
2023-08-14T23:54:46.830Z,88.39
2023-08-14T23:59:50.428Z,89.00
